Time;durP1;ratioP1;P1;durP2;ratioP2;P2;SDS_P1;SDS_P2;PMS_P1;PMS_P2;Temp;Humidity;BMP_temperature;BMP_pressure;BME280_temperature;BME280_humidity;BME280_pressure;Samples;Min_cycle;Max_cycle;Signal;HPM_P1;HPM_P2
2023/09/16 00:02:23;;;;;;;0.08;0.08;;;17.60;99.90;;;;;;5090785;28;20207;-75
2023/09/16 00:04:51;;;;;;;0.00;0.00;;;17.60;99.90;;;;;;5091147;28;20175;-75
2023/09/16 00:07:16;;;;;;;0.03;0.03;;;17.50;99.90;;;;;;5091006;28;20176;-75
2023/09/16 00:09:42;;;;;;;0.20;0.20;;;17.50;99.90;;;;;;5090658;28;20173;-75
2023/09/16 00:12:08;;;;;;;0.05;0.05;;;17.50;99.90;;;;;;5090833;28;20219;-75
2023/09/16 00:14:33;;;;;;;0.00;0.00;;;17.40;99.90;;;;;;5090954;28;20172;-75
2023/09/16 00:17:00;;;;;;;0.00;0.00;;;17.50;99.90;;;;;;5089679;28;20180;-75
2023/09/16 00:19:26;;;;;;;0.03;0.03;;;17.50;99.90;;;;;;5090783;28;20171;-75
2023/09/16 00:21:51;;;;;;;0.00;0.00;;;17.40;99.90;;;;;;5090300;28;20205;-74
2023/09/16 00:24:18;;;;;;;0.10;0.10;;;17.40;99.90;;;;;;5090793;28;20215;-75
2023/09/16 00:26:43;;;;;;;0.00;0.00;;;17.40;99.90;;;;;;5090956;28;20161;-75
2023/09/16 00:29:09;;;;;;;0.40;0.13;;;17.40;99.90;;;;;;5090641;28;20259;-75
2023/09/16 00:31:36;;;;;;;0.10;0.10;;;17.30;99.90;;;;;;5090938;28;20227;-75
2023/09/16 00:34:02;;;;;;;0.00;0.00;;;17.30;99.90;;;;;;5090712;28;20655;-75
2023/09/16 00:36:28;;;;;;;0.43;0.10;;;17.30;99.90;;;;;;5090881;28;20573;-74
2023/09/16 00:38:54;;;;;;;0.00;0.00;;;17.20;99.90;;;;;;5090590;28;20249;-74
2023/09/16 00:41:20;;;;;;;0.55;0.22;;;17.20;99.90;;;;;;5090973;28;20275;-74
2023/09/16 00:43:45;;;;;;;0.00;0.00;;;17.20;99.90;;;;;;5090668;28;20173;-75
2023/09/16 00:46:11;;;;;;;0.00;0.00;;;17.20;99.90;;;;;;5090471;28;20184;-74
2023/09/16 00:48:37;;;;;;;0.00;0.00;;;17.20;99.90;;;;;;5090268;28;20246;-74
2023/09/16 00:51:05;;;;;;;0.00;0.00;;;17.20;99.90;;;;;;5090308;28;20263;-74
2023/09/16 00:53:31;;;;;;;0.00;0.00;;;17.10;99.90;;;;;;5089832;28;20176;-74
2023/09/16 00:55:56;;;;;;;0.00;0.00;;;17.10;99.90;;;;;;5091570;28;20599;-74
2023/09/16 00:58:22;;;;;;;0.00;0.00;;;17.10;99.90;;;;;;5094372;28;20263;-73
2023/09/16 01:00:48;;;;;;;0.00;0.00;;;17.10;99.90;;;;;;5094188;28;20168;-74
2023/09/16 01:03:15;;;;;;;0.22;0.22;;;17.00;99.90;;;;;;5093756;28;20260;-73
2023/09/16 01:05:41;;;;;;;0.00;0.00;;;17.00;99.90;;;;;;5094034;28;20177;-75
2023/09/16 01:08:09;;;;;;;0.00;0.00;;;17.00;99.90;;;;;;5093874;28;20589;-74
2023/09/16 01:10:34;;;;;;;0.03;0.03;;;17.00;99.90;;;;;;5093510;28;20176;-74
2023/09/16 01:13:00;;;;;;;0.05;0.05;;;17.00;99.90;;;;;;5093684;28;20203;-74
2023/09/16 01:15:33;;;;;;;0.30;0.30;;;17.00;99.90;;;;;;5093756;28;20570;-74
2023/09/16 01:18:19;;;;;;;0.00;0.00;;;17.00;99.90;;;;;;5093591;28;20179;-74
2023/09/16 01:20:45;;;;;;;0.00;0.00;;;17.00;99.90;;;;;;5093409;28;20725;-75
2023/09/16 01:23:11;;;;;;;0.00;0.00;;;16.90;99.90;;;;;;5093763;28;20176;-74
2023/09/16 01:25:37;;;;;;;0.00;0.00;;;16.90;99.90;;;;;;5093780;28;20188;-75
2023/09/16 01:28:03;;;;;;;0.00;0.00;;;16.90;99.90;;;;;;5093549;28;20226;-74
2023/09/16 01:30:35;;;;;;;0.10;0.10;;;16.90;99.90;;;;;;5093047;28;20243;-74
2023/09/16 01:33:30;;;;;;;0.00;0.00;;;16.90;99.90;;;;;;5092739;28;20215;-75
2023/09/16 01:36:02;;;;;;;0.10;0.10;;;16.90;99.90;;;;;;5072726;28;20181;-74
2023/09/16 01:38:32;;;;;;;0.00;0.00;;;16.80;99.90;;;;;;5074107;28;20255;-74
2023/09/16 01:40:58;;;;;;;0.00;0.00;;;16.80;99.90;;;;;;5073522;28;20173;-74
2023/09/16 01:43:25;;;;;;;0.00;0.00;;;16.80;99.90;;;;;;5073730;28;20196;-74
2023/09/16 01:45:52;;;;;;;0.00;0.00;;;16.80;99.90;;;;;;5078062;28;20179;-74
2023/09/16 01:48:17;;;;;;;0.00;0.00;;;16.80;99.90;;;;;;5092839;28;20578;-73
2023/09/16 01:50:44;;;;;;;0.00;0.00;;;16.70;99.90;;;;;;5092292;28;20631;-74
2023/09/16 01:53:09;;;;;;;0.00;0.00;;;16.70;99.90;;;;;;5110566;28;20203;-74
2023/09/16 01:55:35;;;;;;;0.00;0.00;;;16.70;99.90;;;;;;5109395;28;20178;-72
2023/09/16 01:58:01;;;;;;;0.10;0.10;;;16.70;99.90;;;;;;5092429;28;20184;-74
2023/09/16 02:00:26;;;;;;;0.00;0.00;;;16.70;99.90;;;;;;5108260;28;20168;-73
2023/09/16 02:02:52;;;;;;;0.15;0.15;;;16.70;99.90;;;;;;5092635;28;20284;-73
2023/09/16 02:05:17;;;;;;;0.10;0.10;;;16.70;99.90;;;;;;5092656;28;20293;-73
2023/09/16 02:07:43;;;;;;;0.00;0.00;;;16.70;99.90;;;;;;5092667;28;20199;-74
2023/09/16 02:10:09;;;;;;;0.00;0.00;;;16.70;99.90;;;;;;5092582;28;20176;-75
2023/09/16 02:12:35;;;;;;;0.28;0.28;;;16.60;99.90;;;;;;5092552;28;20224;-74
2023/09/16 02:15:01;;;;;;;0.00;0.00;;;16.60;99.90;;;;;;5092148;28;20180;-74
2023/09/16 02:17:27;;;;;;;0.00;0.00;;;16.60;99.90;;;;;;5092474;28;20655;-74
2023/09/16 02:19:52;;;;;;;0.00;0.00;;;16.60;99.90;;;;;;5092500;28;20168;-74
2023/09/16 02:22:18;;;;;;;0.10;0.10;;;16.50;99.90;;;;;;5092241;28;20176;-74
2023/09/16 02:24:43;;;;;;;0.00;0.00;;;16.50;99.90;;;;;;5092373;28;20621;-75
2023/09/16 02:27:09;;;;;;;0.08;0.08;;;16.50;99.90;;;;;;5092100;28;20180;-74
2023/09/16 02:29:35;;;;;;;0.00;0.00;;;16.50;99.90;;;;;;5092129;28;20176;-74
2023/09/16 02:32:00;;;;;;;0.10;0.10;;;16.50;99.90;;;;;;5091866;28;20230;-73
2023/09/16 02:34:26;;;;;;;0.00;0.00;;;16.40;99.90;;;;;;5091998;28;20212;-75
2023/09/16 02:36:51;;;;;;;0.00;0.00;;;16.40;99.90;;;;;;5092163;28;20260;-73
2023/09/16 02:39:17;;;;;;;0.00;0.00;;;16.40;99.90;;;;;;5091985;28;20604;-74
2023/09/16 02:41:42;;;;;;;0.10;0.10;;;16.40;99.90;;;;;;5091521;28;20176;-75
2023/09/16 02:44:08;;;;;;;0.00;0.00;;;16.40;99.90;;;;;;5091543;28;20180;-74
2023/09/16 02:46:33;;;;;;;0.00;0.00;;;16.40;99.90;;;;;;5092025;28;20512;-74
2023/09/16 02:49:02;;;;;;;0.00;0.00;;;16.40;99.90;;;;;;5091895;28;20183;-73
2023/09/16 02:51:27;;;;;;;0.00;0.00;;;16.30;99.90;;;;;;5091665;28;20554;-73
2023/09/16 02:53:54;;;;;;;0.00;0.00;;;16.30;99.90;;;;;;5091765;28;20184;-73
2023/09/16 02:56:20;;;;;;;0.00;0.00;;;16.30;99.90;;;;;;5091571;28;20631;-74
2023/09/16 02:58:46;;;;;;;0.00;0.00;;;16.30;99.90;;;;;;5091371;28;20263;-74
2023/09/16 03:01:11;;;;;;;0.00;0.00;;;16.30;99.90;;;;;;5091448;28;20168;-74
2023/09/16 03:03:37;;;;;;;0.10;0.10;;;16.30;99.90;;;;;;5091849;28;20635;-73
2023/09/16 03:06:03;;;;;;;0.10;0.10;;;16.30;99.90;;;;;;5091702;28;20268;-73
2023/09/16 03:08:29;;;;;;;0.10;0.10;;;16.20;99.90;;;;;;5091453;28;20267;-73
2023/09/16 03:11:03;;;;;;;0.00;0.00;;;16.20;99.90;;;;;;5091672;28;20179;-72
2023/09/16 03:13:29;;;;;;;0.00;0.00;;;16.20;99.90;;;;;;5091564;28;20217;-73
2023/09/16 03:16:21;;;;;;;0.00;0.00;;;16.20;99.90;;;;;;5091536;28;20184;-73
2023/09/16 03:18:48;;;;;;;0.00;0.00;;;16.20;99.90;;;;;;5090986;28;20184;-73
2023/09/16 03:21:14;;;;;;;0.00;0.00;;;16.10;99.90;;;;;;5091445;28;20653;-73
2023/09/16 03:23:41;;;;;;;0.00;0.00;;;16.10;99.90;;;;;;5091174;28;20219;-73
2023/09/16 03:26:09;;;;;;;0.00;0.00;;;16.10;99.90;;;;;;5090911;28;20196;-73
2023/09/16 03:28:34;;;;;;;0.00;0.00;;;16.10;99.90;;;;;;5090676;28;20230;-73
2023/09/16 03:31:00;;;;;;;0.00;0.00;;;16.10;99.90;;;;;;5106388;28;20247;-73
2023/09/16 03:33:25;;;;;;;0.00;0.00;;;16.10;99.90;;;;;;5087619;28;20188;-74
2023/09/16 03:35:51;;;;;;;0.00;0.00;;;16.10;99.90;;;;;;5089666;28;20172;-72
2023/09/16 03:38:17;;;;;;;0.00;0.00;;;16.10;99.90;;;;;;5090670;28;20206;-74
2023/09/16 03:40:42;;;;;;;0.20;0.20;;;16.00;99.90;;;;;;5090438;28;20176;-74
2023/09/16 03:43:08;;;;;;;0.00;0.00;;;16.00;99.90;;;;;;5090415;28;20260;-73
2023/09/16 03:45:33;;;;;;;0.00;0.00;;;16.00;99.90;;;;;;5095227;28;20186;-74
2023/09/16 03:47:59;;;;;;;0.00;0.00;;;16.00;99.90;;;;;;5098404;28;20172;-75
2023/09/16 03:50:25;;;;;;;0.00;0.00;;;16.00;99.90;;;;;;5091009;28;20572;-73
2023/09/16 03:52:51;;;;;;;0.05;0.05;;;16.00;99.90;;;;;;5091300;28;20705;-72
2023/09/16 03:55:16;;;;;;;0.00;0.00;;;15.90;99.90;;;;;;5091097;28;20215;-73
2023/09/16 03:57:42;;;;;;;0.00;0.00;;;15.90;99.90;;;;;;5091319;28;20180;-73
2023/09/16 04:00:07;;;;;;;0.00;0.00;;;15.90;99.90;;;;;;5091047;28;20168;-73
2023/09/16 04:02:33;;;;;;;0.00;0.00;;;15.80;99.90;;;;;;5091022;28;20243;-74
2023/09/16 04:04:59;;;;;;;0.00;0.00;;;15.80;99.90;;;;;;5090746;28;20176;-74
2023/09/16 04:07:24;;;;;;;0.00;0.00;;;15.80;99.90;;;;;;5091065;28;20192;-73
2023/09/16 04:09:49;;;;;;;0.00;0.00;;;15.80;99.90;;;;;;5091151;28;20263;-74
2023/09/16 04:12:15;;;;;;;0.00;0.00;;;15.70;99.90;;;;;;5090920;28;20382;-74
2023/09/16 04:14:41;;;;;;;0.00;0.00;;;15.70;99.90;;;;;;5090908;28;20640;-73
2023/09/16 04:17:06;;;;;;;0.00;0.00;;;15.70;99.90;;;;;;5090906;28;20191;-73
2023/09/16 04:19:32;;;;;;;0.00;0.00;;;15.60;99.90;;;;;;5091011;28;20165;-73
2023/09/16 04:21:57;;;;;;;0.00;0.00;;;15.50;99.90;;;;;;5090853;28;20176;-73
2023/09/16 04:24:23;;;;;;;0.00;0.00;;;15.50;99.90;;;;;;5090810;28;20234;-74
2023/09/16 04:26:48;;;;;;;0.10;0.10;;;15.40;99.90;;;;;;5090840;28;20176;-74
2023/09/16 04:29:14;;;;;;;0.32;0.32;;;15.40;99.90;;;;;;5090566;28;20264;-74
2023/09/16 04:31:39;;;;;;;0.00;0.00;;;15.40;99.90;;;;;;5093753;28;20612;-73
2023/09/16 04:34:05;;;;;;;0.00;0.00;;;15.40;99.90;;;;;;5094459;28;20279;-74
2023/09/16 04:36:30;;;;;;;0.00;0.00;;;15.40;99.90;;;;;;5094790;28;20668;-74
2023/09/16 04:38:57;;;;;;;0.00;0.00;;;15.40;99.90;;;;;;5094432;28;20706;-74
2023/09/16 04:41:23;;;;;;;0.00;0.00;;;15.40;99.90;;;;;;5094602;28;20553;-74
2023/09/16 04:43:49;;;;;;;0.00;0.00;;;15.40;99.90;;;;;;5094463;28;20191;-74
2023/09/16 04:46:16;;;;;;;0.00;0.00;;;15.40;99.90;;;;;;5093938;28;20172;-75
2023/09/16 04:48:42;;;;;;;0.00;0.00;;;15.30;99.90;;;;;;5094009;28;20176;-74
2023/09/16 04:51:09;;;;;;;0.00;0.00;;;15.40;99.90;;;;;;5094044;28;20183;-74
2023/09/16 04:53:35;;;;;;;0.00;0.00;;;15.40;99.90;;;;;;5093956;28;20188;-74
2023/09/16 04:56:09;;;;;;;0.00;0.00;;;15.30;99.90;;;;;;5093983;28;20539;-74
2023/09/16 04:58:34;;;;;;;0.00;0.00;;;15.30;99.90;;;;;;5093375;28;20769;-74
2023/09/16 05:01:00;;;;;;;0.10;0.10;;;15.30;99.90;;;;;;5093961;28;20176;-74
2023/09/16 05:03:26;;;;;;;0.00;0.00;;;15.30;99.90;;;;;;5093520;28;20192;-75
2023/09/16 05:05:52;;;;;;;0.00;0.00;;;15.20;99.90;;;;;;5093724;28;20655;-75
2023/09/16 05:08:18;;;;;;;0.00;0.00;;;15.20;99.90;;;;;;5095125;28;20184;-74
2023/09/16 05:10:44;;;;;;;0.00;0.00;;;15.20;99.90;;;;;;5101501;28;20183;-75
2023/09/16 05:13:09;;;;;;;0.00;0.00;;;15.10;99.90;;;;;;5093573;28;20212;-73
2023/09/16 05:15:35;;;;;;;0.00;0.00;;;15.10;99.90;;;;;;5093312;28;20172;-72
2023/09/16 05:18:01;;;;;;;0.00;0.00;;;15.10;99.90;;;;;;5093196;28;20183;-73
2023/09/16 05:20:26;;;;;;;0.00;0.00;;;15.10;99.90;;;;;;5093374;28;20593;-74
2023/09/16 05:22:52;;;;;;;0.00;0.00;;;15.10;99.90;;;;;;5093035;28;20263;-75
2023/09/16 05:25:18;;;;;;;0.00;0.00;;;15.10;99.90;;;;;;5092879;28;20184;-69
2023/09/16 05:27:43;;;;;;;0.00;0.00;;;15.10;99.90;;;;;;5108849;28;20262;-76
2023/09/16 05:30:09;;;;;;;0.00;0.00;;;15.20;99.90;;;;;;5113295;28;20180;-72
2023/09/16 05:32:35;;;;;;;0.00;0.00;;;15.20;99.90;;;;;;5094658;28;20219;-77
2023/09/16 05:35:00;;;;;;;0.00;0.00;;;15.20;99.90;;;;;;5084889;28;20196;-73
2023/09/16 05:37:27;;;;;;;0.00;0.00;;;15.20;99.90;;;;;;5089078;28;20652;-71
2023/09/16 05:39:52;;;;;;;0.00;0.00;;;15.20;99.90;;;;;;5086449;28;20270;-75
2023/09/16 05:42:18;;;;;;;0.00;0.00;;;15.20;99.90;;;;;;5098506;28;20262;-72
2023/09/16 05:44:43;;;;;;;0.00;0.00;;;15.20;99.90;;;;;;5093177;28;20172;-74
2023/09/16 05:47:09;;;;;;;0.10;0.10;;;15.20;99.90;;;;;;5091509;28;20184;-74
2023/09/16 05:49:35;;;;;;;0.00;0.00;;;15.30;99.90;;;;;;5094184;28;20333;-77
2023/09/16 05:52:00;;;;;;;0.15;0.15;;;15.30;99.90;;;;;;5092067;28;20308;-75
2023/09/16 05:54:26;;;;;;;0.00;0.00;;;15.30;99.90;;;;;;5092459;28;20199;-75
2023/09/16 05:56:52;;;;;;;0.20;0.20;;;15.40;99.90;;;;;;5092903;28;20180;-72
2023/09/16 05:59:17;;;;;;;0.00;0.00;;;15.40;99.90;;;;;;5092465;28;20188;-74
2023/09/16 06:01:43;;;;;;;0.05;0.05;;;15.50;99.90;;;;;;5092374;28;20206;-74
2023/09/16 06:04:08;;;;;;;0.00;0.00;;;15.60;99.90;;;;;;5089152;28;20224;-73
2023/09/16 06:06:35;;;;;;;0.10;0.10;;;15.70;99.90;;;;;;5086917;28;20172;-76
2023/09/16 06:09:01;;;;;;;0.00;0.00;;;15.80;99.90;;;;;;5092648;28;20271;-74
2023/09/16 06:11:28;;;;;;;0.00;0.00;;;16.10;99.90;;;;;;5092379;28;20211;-71
2023/09/16 06:13:54;;;;;;;0.00;0.00;;;16.40;99.90;;;;;;5092048;28;20180;-72
2023/09/16 06:16:20;;;;;;;0.00;0.00;;;16.80;99.90;;;;;;5104391;28;20180;-73
2023/09/16 06:18:46;;;;;;;0.00;0.00;;;17.30;99.90;;;;;;5091894;28;20536;-74
2023/09/16 06:21:11;;;;;;;0.00;0.00;;;17.80;99.90;;;;;;5091136;28;20601;-74
2023/09/16 06:23:37;;;;;;;0.00;0.00;;;18.20;99.90;;;;;;5092384;28;20172;-73
2023/09/16 06:26:03;;;;;;;0.00;0.00;;;18.70;99.90;;;;;;5092140;28;20666;-73
2023/09/16 06:28:28;;;;;;;0.00;0.00;;;19.20;99.90;;;;;;5101546;28;20179;-73
2023/09/16 06:30:54;;;;;;;0.00;0.00;;;19.60;99.90;;;;;;5094815;28;20302;-71
2023/09/16 06:33:19;;;;;;;0.00;0.00;;;20.10;99.90;;;;;;5091972;28;20238;-73
2023/09/16 06:35:45;;;;;;;0.00;0.00;;;20.50;99.90;;;;;;5110342;28;20634;-71
2023/09/16 06:38:11;;;;;;;0.00;0.00;;;20.90;99.90;;;;;;5112429;28;20524;-71
2023/09/16 06:40:37;;;;;;;0.00;0.00;;;21.40;99.90;;;;;;5094367;28;20180;-72
2023/09/16 06:43:03;;;;;;;0.00;0.00;;;21.80;99.90;;;;;;5092331;28;20221;-74
2023/09/16 06:45:28;;;;;;;0.00;0.00;;;22.30;99.90;;;;;;5092243;28;20172;-73
2023/09/16 06:47:57;;;;;;;0.10;0.10;;;22.60;99.90;;;;;;5091121;28;20709;-71
2023/09/16 06:50:22;;;;;;;0.00;0.00;;;23.00;99.90;;;;;;5092236;28;20251;-69
2023/09/16 06:52:48;;;;;;;0.10;0.10;;;23.30;99.90;;;;;;5091227;28;20793;-69
2023/09/16 06:55:13;;;;;;;0.00;0.00;;;23.70;99.90;;;;;;5092179;28;20187;-68
2023/09/16 06:57:39;;;;;;;0.03;0.03;;;24.00;99.90;;;;;;5092005;28;20179;-66
2023/09/16 07:00:05;;;;;;;0.00;0.00;;;24.40;99.90;;;;;;5091878;28;20650;-67
2023/09/16 07:02:32;;;;;;;0.00;0.00;;;24.80;99.90;;;;;;5090891;28;20203;-75
2023/09/16 07:04:57;;;;;;;0.00;0.00;;;25.10;99.90;;;;;;5091996;28;20207;-70
2023/09/16 07:07:24;;;;;;;0.00;0.00;;;25.40;99.40;;;;;;5091834;28;20667;-73
2023/09/16 07:09:54;;;;;;;0.00;0.00;;;25.90;98.90;;;;;;5091139;28;20635;-73
2023/09/16 07:12:20;;;;;;;0.00;0.00;;;26.30;97.80;;;;;;5071994;28;20676;-72
2023/09/16 07:14:45;;;;;;;0.00;0.00;;;26.80;97.10;;;;;;5076033;28;20197;-74
2023/09/16 07:17:11;;;;;;;0.00;0.00;;;27.00;96.10;;;;;;5091720;28;20676;-71
2023/09/16 07:19:36;;;;;;;0.00;0.00;;;27.30;95.40;;;;;;5091596;28;20636;-75
2023/09/16 07:22:02;;;;;;;0.00;0.00;;;27.50;94.90;;;;;;5091624;28;20183;-73
2023/09/16 07:24:27;;;;;;;0.00;0.00;;;27.70;94.30;;;;;;5091402;28;20207;-76
2023/09/16 07:26:53;;;;;;;0.00;0.00;;;27.70;94.70;;;;;;5091489;28;20168;-72
2023/09/16 07:29:20;;;;;;;0.32;0.32;;;27.90;94.10;;;;;;5091565;28;20199;-74
2023/09/16 07:31:45;;;;;;;0.00;0.00;;;28.30;93.60;;;;;;5091132;28;20267;-74
2023/09/16 07:34:11;;;;;;;0.00;0.00;;;28.70;92.90;;;;;;5091311;28;20264;-72
2023/09/16 07:36:36;;;;;;;0.10;0.10;;;29.00;92.00;;;;;;5091435;28;20199;-70
2023/09/16 07:39:02;;;;;;;0.00;0.00;;;29.30;91.50;;;;;;5091344;28;20180;-71
2023/09/16 07:41:28;;;;;;;0.00;0.00;;;29.50;90.70;;;;;;5091291;28;20164;-70
2023/09/16 07:43:53;;;;;;;0.10;0.10;;;29.60;91.00;;;;;;5091590;28;20560;-70
2023/09/16 07:46:19;;;;;;;0.00;0.00;;;29.80;90.80;;;;;;5091089;28;20267;-70
2023/09/16 07:48:45;;;;;;;0.00;0.00;;;30.00;90.10;;;;;;5090624;28;20203;-71
2023/09/16 07:51:10;;;;;;;0.00;0.00;;;30.30;88.90;;;;;;5089672;28;20661;-70
2023/09/16 07:53:36;;;;;;;0.00;0.00;;;30.50;87.00;;;;;;5105511;28;20179;-71
2023/09/16 07:56:01;;;;;;;0.05;0.05;;;30.60;87.30;;;;;;5111267;28;20622;-72
2023/09/16 07:58:27;;;;;;;0.00;0.00;;;30.60;86.00;;;;;;5091264;28;20271;-69
2023/09/16 08:00:53;;;;;;;0.10;0.10;;;30.80;85.50;;;;;;5090988;28;20176;-69
2023/09/16 08:03:19;;;;;;;0.00;0.00;;;30.90;84.50;;;;;;5098360;28;20763;-68
2023/09/16 08:05:44;;;;;;;0.00;0.00;;;31.00;84.30;;;;;;5102549;28;20217;-68
2023/09/16 08:08:10;;;;;;;0.00;0.00;;;31.20;83.30;;;;;;5096424;28;20263;-68
2023/09/16 08:10:35;;;;;;;0.00;0.00;;;31.30;83.10;;;;;;5095238;28;20179;-69
2023/09/16 08:13:01;;;;;;;0.00;0.00;;;31.50;82.70;;;;;;5095241;28;20216;-68
2023/09/16 08:15:26;;;;;;;0.00;0.00;;;31.70;81.70;;;;;;5095111;28;20179;-68
2023/09/16 08:17:52;;;;;;;0.00;0.00;;;31.80;81.60;;;;;;5095041;28;20234;-68
2023/09/16 08:20:20;;;;;;;0.00;0.00;;;31.90;79.30;;;;;;5094960;28;20176;-68
2023/09/16 08:22:46;;;;;;;0.00;0.00;;;31.90;78.70;;;;;;5094858;28;20201;-68
2023/09/16 08:25:12;;;;;;;0.00;0.00;;;31.90;77.80;;;;;;5094969;28;20179;-69
2023/09/16 08:27:37;;;;;;;0.00;0.00;;;32.00;78.60;;;;;;5095079;28;20187;-68
2023/09/16 08:30:03;;;;;;;0.00;0.00;;;32.20;78.80;;;;;;5094838;28;20623;-68
2023/09/16 08:32:29;;;;;;;0.00;0.00;;;32.30;79.20;;;;;;5094847;28;20249;-68
2023/09/16 08:34:57;;;;;;;0.10;0.00;;;32.30;77.40;;;;;;5094805;28;20168;-68
2023/09/16 08:37:23;;;;;;;0.00;0.00;;;32.40;75.80;;;;;;5094911;28;20546;-69
2023/09/16 08:39:48;;;;;;;0.00;0.00;;;32.50;75.60;;;;;;5094466;28;20168;-70
2023/09/16 08:42:34;;;;;;;0.00;0.00;;;32.70;75.70;;;;;;5094737;28;20180;-69
2023/09/16 08:45:12;;;;;;;0.00;0.00;;;32.80;73.80;;;;;;5089063;28;20711;-69
2023/09/16 08:47:47;;;;;;;0.00;0.00;;;32.80;74.80;;;;;;5093278;28;20540;-67
2023/09/16 08:50:15;;;;;;;0.20;0.20;;;32.70;73.00;;;;;;5094525;28;20198;-69
2023/09/16 08:52:50;;;;;;;0.00;0.00;;;32.60;73.20;;;;;;5094420;28;20207;-69
2023/09/16 08:55:16;;;;;;;0.00;0.00;;;32.60;73.30;;;;;;5094399;28;20185;-68
2023/09/16 08:57:46;;;;;;;0.00;0.00;;;32.60;74.20;;;;;;5094139;28;20176;-68
2023/09/16 09:00:13;;;;;;;0.00;0.00;;;32.80;75.00;;;;;;5094080;28;20188;-68
2023/09/16 09:02:40;;;;;;;0.00;0.00;;;32.90;72.90;;;;;;5097098;28;20527;-68
2023/09/16 09:05:07;;;;;;;0.22;0.22;;;32.80;73.30;;;;;;5094162;28;20581;-68
2023/09/16 09:07:36;;;;;;;0.08;0.08;;;32.70;72.30;;;;;;5093994;28;20544;-69
2023/09/16 09:10:03;;;;;;;0.20;0.20;;;32.70;73.60;;;;;;5094148;28;20176;-69
2023/09/16 09:12:29;;;;;;;0.00;0.00;;;32.70;73.50;;;;;;5094036;28;20214;-70
2023/09/16 09:14:56;;;;;;;0.00;0.00;;;32.50;73.30;;;;;;5094030;28;20641;-70
2023/09/16 09:17:23;;;;;;;0.08;0.08;;;32.50;73.60;;;;;;5092767;28;20313;-69
2023/09/16 09:19:49;;;;;;;0.00;0.00;;;32.50;73.30;;;;;;5093334;28;20176;-69
2023/09/16 09:22:15;;;;;;;0.00;0.00;;;32.60;74.20;;;;;;5093658;28;20184;-70
2023/09/16 09:24:40;;;;;;;0.00;0.00;;;32.60;73.20;;;;;;5093452;28;20189;-70
2023/09/16 09:27:06;;;;;;;0.00;0.00;;;32.60;73.30;;;;;;5093245;28;20279;-70
2023/09/16 09:29:32;;;;;;;0.00;0.00;;;32.50;72.50;;;;;;5093762;28;20180;-70
2023/09/16 09:31:58;;;;;;;0.00;0.00;;;32.50;73.10;;;;;;5093524;28;20725;-70
2023/09/16 09:34:28;;;;;;;0.00;0.00;;;32.50;73.80;;;;;;5093627;28;20184;-70
2023/09/16 09:36:53;;;;;;;0.00;0.00;;;32.50;74.40;;;;;;5093472;28;20164;-70
2023/09/16 09:39:19;;;;;;;0.10;0.10;;;32.50;73.10;;;;;;5093506;28;20176;-70
2023/09/16 09:41:46;;;;;;;0.00;0.00;;;32.50;73.80;;;;;;5093023;28;20180;-70
2023/09/16 09:44:13;;;;;;;0.00;0.00;;;32.40;73.70;;;;;;5092791;28;20226;-70
2023/09/16 09:46:39;;;;;;;0.03;0.03;;;32.30;72.80;;;;;;5089547;28;20172;-70
2023/09/16 09:49:05;;;;;;;0.28;0.00;;;32.20;73.90;;;;;;5091652;28;20222;-70
2023/09/16 09:51:32;;;;;;;0.00;0.00;;;32.20;74.00;;;;;;5093056;28;20176;-71
2023/09/16 09:53:58;;;;;;;0.00;0.00;;;32.30;72.90;;;;;;5092905;28;20199;-70
2023/09/16 09:56:23;;;;;;;0.00;0.00;;;32.30;73.80;;;;;;5093016;28;20191;-70
2023/09/16 09:58:50;;;;;;;0.00;0.00;;;32.40;72.20;;;;;;5092384;28;20188;-69
2023/09/16 10:01:16;;;;;;;0.00;0.00;;;32.10;72.80;;;;;;5092993;28;20255;-70
2023/09/16 10:03:48;;;;;;;0.00;0.00;;;32.10;73.80;;;;;;5093018;28;20314;-70
2023/09/16 10:06:19;;;;;;;0.13;0.13;;;32.20;74.40;;;;;;5092832;28;20733;-70
2023/09/16 10:08:45;;;;;;;0.00;0.00;;;32.20;74.30;;;;;;5092811;28;20760;-70
2023/09/16 10:11:11;;;;;;;0.00;0.00;;;32.30;73.20;;;;;;5092378;28;20180;-70
2023/09/16 10:13:36;;;;;;;0.00;0.00;;;32.50;72.30;;;;;;5092547;28;20216;-70
2023/09/16 10:16:03;;;;;;;0.10;0.00;;;32.70;70.90;;;;;;5092742;28;20321;-70
2023/09/16 10:18:29;;;;;;;0.00;0.00;;;32.90;71.50;;;;;;5092217;28;20179;-69
2023/09/16 10:20:55;;;;;;;0.00;0.00;;;33.10;70.00;;;;;;5092422;28;20191;-70
2023/09/16 10:23:22;;;;;;;0.00;0.00;;;33.00;69.50;;;;;;5091349;28;20180;-70
2023/09/16 10:25:48;;;;;;;0.00;0.00;;;32.90;68.60;;;;;;5092295;28;20187;-70
2023/09/16 10:28:14;;;;;;;0.00;0.00;;;32.80;68.60;;;;;;5091865;28;20670;-70
2023/09/16 10:30:41;;;;;;;0.00;0.00;;;32.70;68.60;;;;;;5092401;28;20222;-69
2023/09/16 10:33:08;;;;;;;0.05;0.05;;;32.70;69.50;;;;;;5088162;28;20303;-71
2023/09/16 10:35:37;;;;;;;0.00;0.00;;;32.80;69.40;;;;;;5091055;28;20708;-74
2023/09/16 10:38:04;;;;;;;0.00;0.00;;;32.80;68.20;;;;;;5094890;28;20188;-72
2023/09/16 10:40:31;;;;;;;0.00;0.00;;;32.80;68.20;;;;;;5091067;28;20199;-74
2023/09/16 10:42:58;;;;;;;0.00;0.00;;;32.70;68.70;;;;;;5091866;28;20188;-73
2023/09/16 10:45:26;;;;;;;0.00;0.00;;;32.60;68.70;;;;;;5090464;28;20276;-71
2023/09/16 10:47:53;;;;;;;0.00;0.00;;;32.80;69.40;;;;;;5090754;28;20192;-70
2023/09/16 10:50:24;;;;;;;0.00;0.00;;;32.90;67.40;;;;;;5091034;28;20179;-70
2023/09/16 10:53:00;;;;;;;0.17;0.10;;;32.80;66.30;;;;;;5090906;28;20219;-70
2023/09/16 10:55:48;;;;;;;0.00;0.00;;;32.50;67.00;;;;;;5090032;28;20197;-70
2023/09/16 10:58:24;;;;;;;0.10;0.10;;;32.30;67.80;;;;;;5091762;28;20176;-71
2023/09/16 11:00:56;;;;;;;0.00;0.00;;;32.20;68.50;;;;;;5091538;28;20673;-70
2023/09/16 11:03:31;;;;;;;0.00;0.00;;;32.20;69.40;;;;;;5091156;28;20192;-70
2023/09/16 11:06:01;;;;;;;0.00;0.00;;;32.30;69.50;;;;;;5090131;28;20211;-70
2023/09/16 11:08:27;;;;;;;0.00;0.00;;;32.50;68.30;;;;;;5091411;28;20181;-70
2023/09/16 11:10:54;;;;;;;0.00;0.00;;;32.50;66.60;;;;;;5091306;28;20205;-69
2023/09/16 11:13:27;;;;;;;0.00;0.00;;;32.50;65.70;;;;;;5090821;28;20272;-69
2023/09/16 11:15:57;;;;;;;0.00;0.00;;;32.50;65.40;;;;;;5090915;28;20646;-69
2023/09/16 11:18:23;;;;;;;0.03;0.03;;;32.50;66.30;;;;;;5091288;28;20222;-69
2023/09/16 11:20:50;;;;;;;0.10;0.10;;;32.50;66.70;;;;;;5090449;28;20188;-69
2023/09/16 11:23:16;;;;;;;0.05;0.05;;;32.50;65.30;;;;;;5091000;28;20255;-69
2023/09/16 11:25:41;;;;;;;0.00;0.00;;;32.50;66.00;;;;;;5087956;28;20274;-66
2023/09/16 11:28:10;;;;;;;0.00;0.00;;;32.40;65.00;;;;;;5089650;28;20255;-67
2023/09/16 11:30:36;;;;;;;0.00;0.00;;;32.40;64.70;;;;;;5090263;28;20690;-68
2023/09/16 11:33:05;;;;;;;0.00;0.00;;;32.30;66.80;;;;;;5090163;28;20604;-69
2023/09/16 11:35:31;;;;;;;0.00;0.00;;;32.30;65.40;;;;;;5090519;28;20185;-69
2023/09/16 11:37:57;;;;;;;0.00;0.00;;;32.50;65.20;;;;;;5090213;28;20213;-63
2023/09/16 11:40:27;;;;;;;0.00;0.00;;;32.60;63.90;;;;;;5090077;28;20175;-63
2023/09/16 11:42:57;;;;;;;0.00;0.00;;;32.60;64.10;;;;;;5090480;28;20631;-62
2023/09/16 11:45:24;;;;;;;0.00;0.00;;;32.50;64.30;;;;;;5090099;28;20186;-61
2023/09/16 11:47:49;;;;;;;0.00;0.00;;;32.50;64.30;;;;;;5090625;28;20318;-62
2023/09/16 11:50:25;;;;;;;0.00;0.00;;;32.50;65.00;;;;;;5090525;28;20619;-62
2023/09/16 11:52:52;;;;;;;0.00;0.00;;;32.50;66.20;;;;;;5090618;28;20220;-63
2023/09/16 11:55:19;;;;;;;0.00;0.00;;;32.50;64.90;;;;;;5090390;28;20646;-65
2023/09/16 11:57:46;;;;;;;0.00;0.00;;;32.30;65.30;;;;;;5090449;28;20259;-63
2023/09/16 12:00:12;;;;;;;0.00;0.00;;;32.20;64.40;;;;;;5090392;28;20246;-61
2023/09/16 12:02:38;;;;;;;0.00;0.00;;;32.30;64.80;;;;;;5089447;28;20765;-66
2023/09/16 12:05:05;;;;;;;0.00;0.00;;;32.30;64.70;;;;;;5090384;28;20628;-67
2023/09/16 12:07:32;;;;;;;0.00;0.00;;;32.20;64.90;;;;;;5090668;28;20202;-67
2023/09/16 12:09:59;;;;;;;0.15;0.15;;;32.10;62.10;;;;;;5090557;28;20627;-66
2023/09/16 12:12:25;;;;;;;0.00;0.00;;;32.10;62.60;;;;;;5090542;28;20207;-58
2023/09/16 12:14:51;;;;;;;0.00;0.00;;;32.00;62.10;;;;;;5090320;28;20283;-66
2023/09/16 12:17:18;;;;;;;0.00;0.00;;;31.90;63.20;;;;;;5090542;28;20210;-65
2023/09/16 12:19:51;;;;;;;0.00;0.00;;;31.90;63.60;;;;;;5090357;28;20164;-65
2023/09/16 12:22:17;;;;;;;0.00;0.00;;;31.90;63.20;;;;;;5090526;28;20192;-66
2023/09/16 12:24:43;;;;;;;0.00;0.00;;;31.80;62.40;;;;;;5090373;28;20173;-66
2023/09/16 12:27:09;;;;;;;0.00;0.00;;;31.80;62.00;;;;;;5090439;28;20176;-66
2023/09/16 12:29:34;;;;;;;0.00;0.00;;;31.90;62.60;;;;;;5090446;28;20594;-65
2023/09/16 12:32:16;;;;;;;0.00;0.00;;;31.80;62.50;;;;;;5090470;28;20762;-65
2023/09/16 12:34:41;;;;;;;0.05;0.05;;;31.50;62.40;;;;;;5090914;28;20186;-66
2023/09/16 12:37:07;;;;;;;0.00;0.00;;;31.30;63.50;;;;;;5079149;28;20176;-65
2023/09/16 12:39:34;;;;;;;0.00;0.00;;;31.30;64.80;;;;;;5091029;28;20180;-65
2023/09/16 12:42:01;;;;;;;0.05;0.05;;;31.50;63.10;;;;;;5090318;28;20187;-65
2023/09/16 12:44:28;;;;;;;0.00;0.00;;;31.50;62.50;;;;;;5089209;28;20635;-65
2023/09/16 12:46:56;;;;;;;0.00;0.00;;;31.50;61.90;;;;;;5090726;28;20651;-65